Time;durP1;ratioP1;P1;durP2;ratioP2;P2;SDS_P1;SDS_P2;PMS_P1;PMS_P2;Temp;Humidity;BMP_temperature;BMP_pressure;BME280_temperature;BME280_humidity;BME280_pressure;Samples;Min_cycle;Max_cycle;Signal;HPM_P1;HPM_P2
2021/03/30 00:23:31;;;;;;;12.00;7.57;;;12.40;99.90;;;;;;5049978;28;20305;-81
2021/03/30 00:25:57;;;;;;;14.10;7.27;;;12.30;99.90;;;;;;5055482;28;20257;-82
2021/03/30 00:28:24;;;;;;;15.23;7.47;;;12.40;99.90;;;;;;5048105;28;20225;-81
2021/03/30 00:30:51;;;;;;;15.07;7.77;;;12.40;99.90;;;;;;5023507;28;20210;-81
2021/03/30 00:33:17;;;;;;;15.63;8.80;;;12.30;99.90;;;;;;5033102;28;20775;-82
2021/03/30 00:35:44;;;;;;;15.63;8.80;;;12.20;99.90;;;;;;5042482;28;20237;-82
2021/03/30 00:38:11;;;;;;;13.60;7.93;;;12.20;99.90;;;;;;5044129;28;20211;-81
2021/03/30 00:40:38;;;;;;;16.20;8.60;;;12.20;99.90;;;;;;5021029;28;20192;-81
2021/03/30 00:43:05;;;;;;;17.23;8.90;;;12.10;99.90;;;;;;5032410;28;20204;-81
2021/03/30 00:45:32;;;;;;;17.40;8.83;;;12.00;99.90;;;;;;5051208;28;20272;-81
2021/03/30 00:47:59;;;;;;;17.27;9.27;;;12.10;99.90;;;;;;5033779;28;20209;-81
2021/03/30 00:57:30;;;;;;;16.47;8.97;;;12.00;99.90;;;;;;5055538;28;20288;-80
2021/03/30 00:59:56;;;;;;;16.33;9.87;;;11.90;99.90;;;;;;5026361;28;20259;-82
2021/03/30 01:02:23;;;;;;;20.60;10.13;;;11.60;99.90;;;;;;5022584;28;20199;-81
2021/03/30 01:04:49;;;;;;;17.50;9.20;;;11.80;99.90;;;;;;5036215;28;20205;-81
2021/03/30 01:07:16;;;;;;;18.37;9.43;;;11.80;99.90;;;;;;5002081;28;20212;-81
2021/03/30 01:10:00;;;;;;;17.13;8.57;;;11.80;99.90;;;;;;5025487;28;20219;-81
2021/03/30 01:12:51;;;;;;;16.87;9.23;;;11.80;99.90;;;;;;5037539;28;20208;-81
2021/03/30 01:16:02;;;;;;;17.43;8.97;;;11.70;99.90;;;;;;5034005;28;20204;-81
2021/03/30 01:18:35;;;;;;;19.17;9.30;;;11.80;99.90;;;;;;4995579;28;20197;-81
2021/03/30 01:21:16;;;;;;;17.77;9.20;;;11.80;99.90;;;;;;4979200;28;20205;-81
2021/03/30 01:24:28;;;;;;;19.57;9.33;;;11.80;99.90;;;;;;5012131;28;20319;-80
2021/03/30 01:27:02;;;;;;;18.87;8.90;;;11.80;99.90;;;;;;5027650;28;20650;-80
2021/03/30 01:29:53;;;;;;;16.73;10.10;;;11.70;99.90;;;;;;5045513;28;20262;-80
2021/03/30 01:32:36;;;;;;;14.77;8.67;;;11.70;99.90;;;;;;5034634;28;20199;-81
2021/03/30 01:35:07;;;;;;;20.43;9.87;;;11.60;99.90;;;;;;5031853;28;20230;-81
2021/03/30 01:37:47;;;;;;;20.57;9.77;;;11.30;99.90;;;;;;5033406;28;20219;-81
2021/03/30 01:40:19;;;;;;;21.10;11.13;;;11.30;99.90;;;;;;5010257;28;20233;-81
2021/03/30 01:42:48;;;;;;;19.33;10.10;;;11.20;99.90;;;;;;5038874;28;20246;-81
2021/03/30 01:45:22;;;;;;;19.00;10.37;;;11.20;99.90;;;;;;5013934;28;20198;-81
2021/03/30 01:47:50;;;;;;;20.37;9.70;;;11.30;99.90;;;;;;5032538;28;20645;-81
2021/03/30 01:50:17;;;;;;;18.03;8.93;;;11.50;99.90;;;;;;5049973;28;20598;-81
2021/03/30 01:52:44;;;;;;;18.63;9.77;;;11.60;99.90;;;;;;5031971;28;20255;-81
2021/03/30 01:55:16;;;;;;;15.57;9.37;;;11.70;99.90;;;;;;5014883;28;20214;-81
2021/03/30 01:57:50;;;;;;;16.27;9.40;;;11.60;99.90;;;;;;5049099;28;20234;-81
2021/03/30 02:00:17;;;;;;;19.33;10.67;;;11.50;99.90;;;;;;5034165;28;20503;-81
2021/03/30 02:02:46;;;;;;;16.93;9.57;;;11.40;99.90;;;;;;5031932;28;20354;-81
2021/03/30 02:05:14;;;;;;;16.17;9.87;;;11.40;99.90;;;;;;5035799;28;20204;-81
2021/03/30 02:07:42;;;;;;;19.67;9.73;;;11.40;99.90;;;;;;5037675;28;20547;-81
2021/03/30 02:10:15;;;;;;;19.57;9.70;;;11.50;99.90;;;;;;5034980;28;20261;-81
2021/03/30 02:12:44;;;;;;;20.17;10.23;;;11.40;99.90;;;;;;5035311;28;20204;-81
2021/03/30 02:15:15;;;;;;;19.47;10.47;;;11.50;99.90;;;;;;5017030;28;20211;-81
2021/03/30 02:18:12;;;;;;;22.10;11.50;;;11.50;99.90;;;;;;5050957;28;20211;-81
2021/03/30 02:20:48;;;;;;;18.00;9.83;;;11.40;99.90;;;;;;5032032;28;20611;-81
2021/03/30 02:23:25;;;;;;;16.83;9.93;;;11.50;99.90;;;;;;5027575;28;20249;-81
2021/03/30 02:25:57;;;;;;;15.50;8.90;;;11.40;99.90;;;;;;5018449;28;20212;-81
2021/03/30 02:28:43;;;;;;;18.60;10.13;;;11.30;99.90;;;;;;5034115;28;20268;-82
2021/03/30 02:31:16;;;;;;;18.63;9.83;;;11.20;99.90;;;;;;5027307;28;20193;-82
2021/03/30 02:33:46;;;;;;;19.87;10.23;;;11.20;99.90;;;;;;5034685;28;20208;-81
2021/03/30 02:36:13;;;;;;;20.70;11.13;;;11.20;99.90;;;;;;5043483;28;20260;-81
2021/03/30 02:38:41;;;;;;;19.47;10.60;;;11.20;99.90;;;;;;5033622;28;20215;-81
2021/03/30 02:41:09;;;;;;;21.97;10.93;;;11.30;99.90;;;;;;5016160;28;20655;-81
2021/03/30 02:43:36;;;;;;;21.97;10.53;;;11.30;99.90;;;;;;5016386;28;20199;-81
2021/03/30 02:46:06;;;;;;;20.03;9.53;;;11.20;99.90;;;;;;5006208;28;20654;-82
2021/03/30 02:48:36;;;;;;;21.70;10.00;;;11.00;99.90;;;;;;5051202;28;20337;-81
2021/03/30 02:51:05;;;;;;;19.97;10.17;;;11.00;99.90;;;;;;5032832;28;20202;-81
2021/03/30 02:53:32;;;;;;;21.43;10.47;;;11.00;99.90;;;;;;5033358;28;20241;-81
2021/03/30 02:56:02;;;;;;;16.50;9.40;;;10.80;99.90;;;;;;5034874;28;20212;-81
2021/03/30 02:58:28;;;;;;;20.90;11.17;;;10.80;99.90;;;;;;5035702;28;20269;-81
2021/03/30 03:00:55;;;;;;;21.70;10.63;;;10.60;99.90;;;;;;5034264;28;20262;-81
2021/03/30 03:03:22;;;;;;;21.80;11.47;;;10.40;99.90;;;;;;5003611;28;20257;-82
2021/03/30 03:05:49;;;;;;;18.90;10.53;;;10.40;99.90;;;;;;5015802;28;20264;-82
2021/03/30 03:08:16;;;;;;;18.90;10.23;;;10.50;99.90;;;;;;5035410;28;20194;-82
2021/03/30 03:10:43;;;;;;;24.13;11.33;;;10.70;99.90;;;;;;5018823;28;20548;-81
2021/03/30 03:13:12;;;;;;;21.70;11.07;;;10.80;99.90;;;;;;5019734;28;20206;-81
2021/03/30 03:15:41;;;;;;;21.20;10.63;;;10.70;99.90;;;;;;5036667;28;20224;-81
2021/03/30 03:18:10;;;;;;;23.03;10.63;;;10.70;99.90;;;;;;5035679;28;20269;-81
2021/03/30 03:20:37;;;;;;;20.40;10.90;;;10.80;99.90;;;;;;5032654;28;20211;-81
2021/03/30 03:23:05;;;;;;;21.53;11.03;;;10.80;99.90;;;;;;5020910;28;20242;-82
2021/03/30 03:25:32;;;;;;;19.37;10.40;;;10.80;99.90;;;;;;5038894;28;20207;-82
2021/03/30 03:28:02;;;;;;;20.00;10.83;;;10.80;99.90;;;;;;5031105;28;20233;-81
2021/03/30 03:30:28;;;;;;;17.80;9.93;;;10.70;99.90;;;;;;5053034;28;20262;-81
2021/03/30 03:33:11;;;;;;;24.43;11.90;;;10.80;99.90;;;;;;5053985;28;20199;-81
2021/03/30 03:35:42;;;;;;;17.37;10.17;;;10.70;99.90;;;;;;5063404;28;20199;-81
2021/03/30 03:38:09;;;;;;;23.20;10.50;;;10.70;99.90;;;;;;5037560;28;20226;-81
2021/03/30 03:40:36;;;;;;;21.37;10.17;;;10.70;99.90;;;;;;5027332;28;20193;-81
2021/03/30 03:43:02;;;;;;;22.17;11.40;;;10.70;99.90;;;;;;5039675;28;20211;-81
2021/03/30 03:45:28;;;;;;;19.50;11.07;;;10.60;99.90;;;;;;5036031;28;20199;-80
2021/03/30 03:47:55;;;;;;;20.00;9.43;;;10.60;99.90;;;;;;5022299;28;20200;-80
2021/03/30 03:50:21;;;;;;;18.57;10.80;;;10.50;99.90;;;;;;5037014;28;20199;-80
2021/03/30 03:52:52;;;;;;;22.57;10.23;;;10.40;99.90;;;;;;5020308;28;20557;-80
2021/03/30 03:55:20;;;;;;;22.10;11.73;;;10.40;99.90;;;;;;5052090;28;20616;-81
2021/03/30 03:57:59;;;;;;;21.77;11.07;;;10.40;99.90;;;;;;5035484;28;20219;-81
2021/03/30 04:00:26;;;;;;;22.70;10.80;;;10.40;99.90;;;;;;5036942;28;20203;-81
2021/03/30 04:03:12;;;;;;;19.00;9.93;;;10.40;99.90;;;;;;5033126;28;20237;-81
2021/03/30 04:05:46;;;;;;;21.03;10.63;;;10.30;99.90;;;;;;5035538;28;20195;-81
2021/03/30 04:08:15;;;;;;;22.83;11.40;;;10.30;99.90;;;;;;5033691;28;20223;-81
2021/03/30 04:10:47;;;;;;;20.77;11.10;;;10.30;99.90;;;;;;5036321;28;20198;-81
2021/03/30 04:13:16;;;;;;;20.40;10.70;;;10.20;99.90;;;;;;5036075;28;20245;-80
2021/03/30 04:15:43;;;;;;;22.03;10.17;;;10.20;99.90;;;;;;5036273;28;20218;-80
2021/03/30 04:18:09;;;;;;;23.97;12.27;;;10.20;99.90;;;;;;5036444;28;20270;-80
2021/03/30 04:20:37;;;;;;;23.67;10.30;;;10.10;99.90;;;;;;5033766;28;20616;-80
2021/03/30 04:23:04;;;;;;;18.77;10.13;;;10.00;99.90;;;;;;5031361;28;20242;-81
2021/03/30 04:25:31;;;;;;;19.23;10.13;;;10.00;99.90;;;;;;5016073;28;20215;-80
2021/03/30 04:27:57;;;;;;;19.63;10.57;;;9.70;99.90;;;;;;5024937;28;20204;-80
2021/03/30 04:30:26;;;;;;;21.47;11.77;;;9.50;99.90;;;;;;4996958;28;20269;-82
2021/03/30 04:32:53;;;;;;;20.40;10.37;;;9.60;99.90;;;;;;5016576;28;20294;-79
2021/03/30 04:35:19;;;;;;;21.27;11.17;;;9.50;99.90;;;;;;5014076;28;20206;-80
2021/03/30 04:37:46;;;;;;;19.77;10.90;;;9.50;99.90;;;;;;5019598;28;20228;-80
2021/03/30 04:40:13;;;;;;;19.33;10.83;;;9.40;99.90;;;;;;5002137;28;20488;-80
2021/03/30 04:42:40;;;;;;;20.73;10.90;;;9.40;99.90;;;;;;5005207;28;20194;-80
2021/03/30 04:45:09;;;;;;;21.30;11.33;;;9.40;99.90;;;;;;5015237;28;20199;-80
2021/03/30 04:47:36;;;;;;;20.07;11.10;;;9.40;99.90;;;;;;5010250;28;20222;-80
2021/03/30 04:50:07;;;;;;;19.97;9.83;;;9.30;99.90;;;;;;5025830;28;20239;-80
2021/03/30 04:52:35;;;;;;;19.60;10.47;;;9.30;99.90;;;;;;5014863;28;20233;-80
2021/03/30 04:55:02;;;;;;;23.83;11.17;;;9.30;99.90;;;;;;5015383;28;20522;-81
2021/03/30 04:57:29;;;;;;;24.73;11.33;;;9.30;99.90;;;;;;5007792;28;20216;-81
2021/03/30 04:59:55;;;;;;;21.07;11.50;;;9.20;99.90;;;;;;4999167;28;20216;-82
2021/03/30 05:02:21;;;;;;;20.07;11.47;;;9.30;99.90;;;;;;5014463;28;20232;-81
2021/03/30 05:04:49;;;;;;;23.53;10.43;;;9.30;99.90;;;;;;5013648;28;20203;-81
2021/03/30 05:07:16;;;;;;;20.00;9.93;;;9.30;99.90;;;;;;5009643;28;20252;-82
2021/03/30 05:09:43;;;;;;;23.60;10.77;;;9.30;99.90;;;;;;5001473;28;20217;-82
2021/03/30 05:12:09;;;;;;;21.53;11.20;;;9.30;99.90;;;;;;5016672;28;20695;-81
2021/03/30 05:14:36;;;;;;;20.40;10.83;;;9.30;99.90;;;;;;4998511;28;20217;-81
2021/03/30 05:17:02;;;;;;;21.97;10.20;;;9.40;99.90;;;;;;5014560;28;20229;-81
2021/03/30 05:19:29;;;;;;;23.37;11.47;;;9.30;99.90;;;;;;4993776;28;20202;-82
2021/03/30 05:21:55;;;;;;;21.50;11.47;;;9.20;99.90;;;;;;5016171;28;20657;-82
2021/03/30 05:24:22;;;;;;;18.70;12.20;;;9.20;99.90;;;;;;5036227;28;20228;-81
2021/03/30 05:26:48;;;;;;;25.80;13.03;;;9.20;99.90;;;;;;5022441;28;20258;-82
2021/03/30 05:29:14;;;;;;;20.83;11.87;;;9.20;99.90;;;;;;5038971;28;20245;-83
2021/03/30 05:31:41;;;;;;;23.80;11.90;;;9.30;99.90;;;;;;5028996;28;20206;-81
2021/03/30 05:34:07;;;;;;;23.90;12.07;;;9.20;99.90;;;;;;5021782;28;20220;-81
2021/03/30 05:36:34;;;;;;;24.00;12.00;;;9.20;99.90;;;;;;5039387;28;20208;-80
2021/03/30 05:39:00;;;;;;;21.57;12.60;;;9.30;99.90;;;;;;5038682;28;20274;-84
2021/03/30 05:41:27;;;;;;;20.70;10.93;;;9.30;99.90;;;;;;5040323;28;20625;-83
2021/03/30 05:43:56;;;;;;;23.73;13.07;;;9.30;99.90;;;;;;5052085;28;20249;-82
2021/03/30 05:46:22;;;;;;;23.60;10.97;;;9.30;99.90;;;;;;5054385;28;20197;-85
2021/03/30 05:48:51;;;;;;;20.73;11.90;;;9.20;99.90;;;;;;5023750;28;20258;-85
2021/03/30 05:51:19;;;;;;;26.30;11.43;;;9.20;99.90;;;;;;5044035;28;20629;-85
2021/03/30 05:53:53;;;;;;;23.50;12.10;;;9.20;99.90;;;;;;5020403;28;20278;-86
2021/03/30 05:56:22;;;;;;;28.80;12.93;;;9.30;99.90;;;;;;5039339;28;20546;-86
2021/03/30 05:58:50;;;;;;;24.33;12.97;;;9.20;99.90;;;;;;5040455;28;20292;-85
2021/03/30 06:01:18;;;;;;;27.33;13.57;;;9.30;99.90;;;;;;5038298;28;20212;-85
2021/03/30 06:03:45;;;;;;;23.00;12.93;;;9.30;99.90;;;;;;5037980;28;20204;-84
2021/03/30 06:06:12;;;;;;;22.17;11.70;;;9.30;99.90;;;;;;5022428;28;20299;-83
2021/03/30 06:08:42;;;;;;;21.73;11.70;;;9.40;99.90;;;;;;5039609;28;20575;-83
2021/03/30 06:11:10;;;;;;;28.70;11.87;;;9.40;99.90;;;;;;5039167;28;20193;-86
2021/03/30 06:13:51;;;;;;;28.83;12.30;;;9.40;99.90;;;;;;5023328;28;20198;-81
2021/03/30 06:16:37;;;;;;;25.27;11.13;;;9.40;99.90;;;;;;5038356;28;20196;-82
2021/03/30 06:19:17;;;;;;;22.87;11.07;;;9.50;99.90;;;;;;5034790;28;20330;-82
2021/03/30 06:21:46;;;;;;;23.60;11.53;;;9.50;99.90;;;;;;5049952;28;20203;-80
2021/03/30 06:24:21;;;;;;;23.00;11.97;;;9.60;99.90;;;;;;5033270;28;20268;-81
2021/03/30 06:26:49;;;;;;;31.57;12.07;;;9.60;99.90;;;;;;5031461;28;20200;-81
2021/03/30 06:29:35;;;;;;;26.17;12.33;;;9.70;99.90;;;;;;5021817;28;20199;-80
2021/03/30 06:32:08;;;;;;;22.20;12.07;;;9.80;99.90;;;;;;5034564;28;20277;-82
2021/03/30 06:34:36;;;;;;;20.37;11.57;;;9.90;99.90;;;;;;5040768;28;20214;-82
2021/03/30 06:37:25;;;;;;;23.97;11.93;;;10.00;99.90;;;;;;5058359;28;20244;-80
2021/03/30 06:39:53;;;;;;;20.37;11.00;;;10.30;99.90;;;;;;5058640;28;20578;-81
2021/03/30 06:45:09;;;;;;;29.70;12.90;;;10.50;99.90;;;;;;5059883;28;20226;-80
2021/03/30 06:47:36;;;;;;;24.67;11.70;;;10.70;99.90;;;;;;5039631;28;20243;-81
2021/03/30 06:50:09;;;;;;;21.87;12.00;;;10.90;99.90;;;;;;5039181;28;20207;-83
2021/03/30 06:52:37;;;;;;;24.03;11.87;;;11.10;99.90;;;;;;5043902;28;20223;-80
2021/03/30 06:55:07;;;;;;;21.53;11.60;;;11.40;99.90;;;;;;5021664;28;20213;-80
2021/03/30 06:57:41;;;;;;;25.47;11.80;;;11.50;99.90;;;;;;5057064;28;21433;-81
2021/03/30 07:00:09;;;;;;;21.20;11.43;;;11.70;99.90;;;;;;5037020;28;20204;-81
2021/03/30 07:02:40;;;;;;;22.83;11.50;;;11.80;99.90;;;;;;5039811;28;20196;-82
2021/03/30 07:05:19;;;;;;;24.20;12.43;;;12.00;99.90;;;;;;5045818;28;20191;-81
2021/03/30 07:07:49;;;;;;;24.00;12.50;;;12.10;99.90;;;;;;5049588;28;20199;-81
2021/03/30 07:10:30;;;;;;;24.13;12.77;;;12.30;99.90;;;;;;5045797;28;20246;-81
2021/03/30 07:12:57;;;;;;;22.17;12.43;;;12.50;99.90;;;;;;5039392;28;20554;-82
2021/03/30 07:15:25;;;;;;;22.13;11.87;;;12.70;99.90;;;;;;5023158;28;20212;-81
2021/03/30 07:18:00;;;;;;;22.37;11.40;;;13.00;99.90;;;;;;5023946;28;20366;-81
2021/03/30 07:20:30;;;;;;;27.80;13.00;;;13.10;99.70;;;;;;5051652;28;20200;-81
2021/03/30 07:23:00;;;;;;;19.33;11.60;;;13.20;98.20;;;;;;5050488;28;20264;-83
2021/03/30 07:25:27;;;;;;;23.87;12.40;;;12.70;99.80;;;;;;5041247;28;20196;-81
2021/03/30 07:28:00;;;;;;;22.53;12.23;;;12.60;99.90;;;;;;5040407;28;20323;-82
2021/03/30 07:30:28;;;;;;;26.53;13.40;;;12.70;99.90;;;;;;5039105;28;20204;-82
2021/03/30 07:33:06;;;;;;;23.37;12.67;;;12.50;99.90;;;;;;5054125;28;20211;-82
2021/03/30 07:35:38;;;;;;;20.27;11.07;;;12.30;99.90;;;;;;5053537;28;20207;-81
2021/03/30 07:38:20;;;;;;;21.00;11.77;;;12.40;99.90;;;;;;5056064;28;20284;-82
2021/03/30 07:40:48;;;;;;;20.23;11.87;;;12.50;99.90;;;;;;5038669;28;20204;-82
2021/03/30 07:43:25;;;;;;;27.30;12.23;;;12.70;99.90;;;;;;5025485;28;20203;-83
2021/03/30 07:45:55;;;;;;;30.83;12.63;;;13.00;99.90;;;;;;5058360;28;20213;-83
2021/03/30 07:48:24;;;;;;;25.47;13.07;;;13.30;99.90;;;;;;5041956;28;20197;-82
2021/03/30 07:50:55;;;;;;;18.60;11.07;;;13.30;99.90;;;;;;5040651;28;20238;-82
2021/03/30 07:53:45;;;;;;;21.50;12.13;;;13.30;99.90;;;;;;5039005;28;20636;-83
2021/03/30 07:56:26;;;;;;;23.40;11.83;;;13.80;99.90;;;;;;5037938;28;20224;-81
2021/03/30 07:58:54;;;;;;;25.27;12.57;;;14.00;99.50;;;;;;5037451;28;20211;-81
2021/03/30 08:01:26;;;;;;;22.67;12.07;;;13.90;99.90;;;;;;5051867;28;20204;-80
2021/03/30 08:03:54;;;;;;;25.17;12.93;;;13.80;99.30;;;;;;5036265;28;20217;-80
2021/03/30 08:06:49;;;;;;;23.97;13.63;;;13.60;98.70;;;;;;5039289;28;20290;-80
2021/03/30 08:09:19;;;;;;;25.37;13.27;;;13.60;97.90;;;;;;5038450;28;20496;-80
2021/03/30 08:11:56;;;;;;;22.30;12.40;;;13.90;97.70;;;;;;5036494;28;20213;-80
2021/03/30 08:14:26;;;;;;;25.00;12.30;;;14.30;96.90;;;;;;5052310;28;20210;-81
2021/03/30 08:17:10;;;;;;;24.53;12.47;;;14.50;94.50;;;;;;5036841;28;20224;-81
2021/03/30 08:19:52;;;;;;;27.03;13.17;;;14.80;93.40;;;;;;5034990;28;20204;-81
2021/03/30 08:22:18;;;;;;;25.77;12.63;;;15.10;90.30;;;;;;5038474;28;20196;-81
2021/03/30 08:24:45;;;;;;;27.20;13.33;;;15.10;88.80;;;;;;5008392;28;20299;-80
2021/03/30 08:27:31;;;;;;;25.07;12.73;;;15.80;88.60;;;;;;5011091;28;20202;-80
2021/03/30 08:29:58;;;;;;;28.33;13.10;;;15.70;84.00;;;;;;5030036;28;20226;-80
2021/03/30 08:32:27;;;;;;;25.70;13.27;;;15.80;83.70;;;;;;4997760;28;20199;-80
2021/03/30 08:34:54;;;;;;;27.23;13.63;;;16.20;82.90;;;;;;4992752;28;20931;-80
2021/03/30 08:37:22;;;;;;;31.90;13.33;;;16.70;78.70;;;;;;5008752;28;20924;-80
2021/03/30 08:39:49;;;;;;;26.63;14.00;;;17.40;80.70;;;;;;4984234;28;20201;-80
2021/03/30 08:42:18;;;;;;;27.67;14.03;;;17.40;78.10;;;;;;5014201;28;20517;-82
2021/03/30 08:44:44;;;;;;;28.57;13.43;;;17.90;72.40;;;;;;5008614;28;20219;-82
2021/03/30 08:47:44;;;;;;;26.57;13.17;;;18.40;65.40;;;;;;5013781;28;20204;-82
2021/03/30 08:50:15;;;;;;;29.53;14.63;;;18.70;63.50;;;;;;5010765;28;20258;-82
2021/03/30 08:52:41;;;;;;;31.80;15.37;;;18.80;62.00;;;;;;5020017;28;20210;-82
2021/03/30 08:55:10;;;;;;;29.87;13.60;;;18.50;57.20;;;;;;5007594;28;20214;-82
2021/03/30 08:57:38;;;;;;;29.17;14.40;;;18.90;58.80;;;;;;5029358;28;20311;-81
2021/03/30 09:00:07;;;;;;;27.73;14.50;;;19.30;56.30;;;;;;5010245;28;20205;-81
2021/03/30 09:02:35;;;;;;;29.33;14.40;;;19.60;57.30;;;;;;5019503;28;20240;-81
2021/03/30 09:05:12;;;;;;;36.13;15.10;;;19.60;56.60;;;;;;5014034;28;20220;-82
2021/03/30 09:07:46;;;;;;;28.53;14.37;;;18.50;55.60;;;;;;5014971;28;20629;-82
2021/03/30 09:10:15;;;;;;;31.57;14.83;;;18.80;55.60;;;;;;5028846;28;20386;-83
2021/03/30 09:12:43;;;;;;;32.90;14.50;;;19.20;55.40;;;;;;5018149;28;20250;-82
2021/03/30 09:15:12;;;;;;;30.43;14.20;;;19.70;56.20;;;;;;5015212;28;20211;-81
2021/03/30 09:17:59;;;;;;;29.73;13.93;;;20.40;56.30;;;;;;5015559;28;20214;-81
2021/03/30 09:20:32;;;;;;;30.27;14.27;;;20.60;50.20;;;;;;5010764;28;20202;-81
2021/03/30 09:23:04;;;;;;;31.57;15.70;;;20.70;50.00;;;;;;5011042;28;20221;-81
2021/03/30 09:25:39;;;;;;;33.80;16.50;;;21.10;49.00;;;;;;5004047;28;20213;-82
2021/03/30 09:28:12;;;;;;;32.73;16.93;;;20.90;45.80;;;;;;5012243;28;20263;-82
2021/03/30 09:30:39;;;;;;;32.40;17.33;;;21.20;46.60;;;;;;5011783;28;20304;-82
2021/03/30 09:33:05;;;;;;;28.97;15.20;;;21.60;45.90;;;;;;5017307;28;20201;-82
2021/03/30 09:35:31;;;;;;;34.30;15.30;;;21.00;45.00;;;;;;4999076;28;20668;-82
2021/03/30 09:38:03;;;;;;;32.47;16.30;;;21.50;47.10;;;;;;5001995;28;20217;-82
2021/03/30 09:40:38;;;;;;;32.97;16.90;;;21.40;43.60;;;;;;5008040;28;20343;-82
2021/03/30 09:43:07;;;;;;;32.30;15.70;;;21.40;46.10;;;;;;5012933;28;20212;-82
2021/03/30 09:45:35;;;;;;;32.00;16.73;;;21.90;44.70;;;;;;5016116;28;20194;-79
2021/03/30 09:48:05;;;;;;;26.30;15.10;;;22.20;40.20;;;;;;5015691;28;20311;-82
2021/03/30 09:50:32;;;;;;;28.67;15.53;;;22.20;34.80;;;;;;5012184;28;20606;-82
2021/03/30 09:53:04;;;;;;;30.90;16.53;;;22.20;34.60;;;;;;5013204;28;20252;-82
2021/03/30 09:55:43;;;;;;;28.40;15.37;;;22.50;33.70;;;;;;5016603;28;20209;-83
2021/03/30 09:58:17;;;;;;;31.83;15.13;;;22.20;34.20;;;;;;5015745;28;20217;-83
2021/03/30 10:00:47;;;;;;;29.63;15.67;;;22.20;38.00;;;;;;5032790;28;20201;-83
2021/03/30 10:03:16;;;;;;;29.30;15.20;;;22.70;31.70;;;;;;5015168;28;20217;-83
2021/03/30 10:05:43;;;;;;;31.07;14.77;;;22.40;32.40;;;;;;5011226;28;20857;-81
2021/03/30 10:08:26;;;;;;;30.53;16.33;;;22.20;27.50;;;;;;5006454;28;20244;-82
2021/03/30 10:10:56;;;;;;;24.30;14.20;;;22.20;31.80;;;;;;5011611;28;20228;-82
2021/03/30 10:13:28;;;;;;;30.03;14.73;;;22.30;28.60;;;;;;5010974;28;20264;-81
2021/03/30 10:15:56;;;;;;;28.43;14.70;;;22.40;30.60;;;;;;5017163;28;20215;-81
2021/03/30 10:18:25;;;;;;;29.57;14.83;;;22.70;30.70;;;;;;5031128;28;20287;-82
2021/03/30 10:21:18;;;;;;;26.53;14.20;;;22.40;32.00;;;;;;4997866;28;20220;-82
2021/03/30 10:23:50;;;;;;;28.70;15.23;;;22.40;31.30;;;;;;5012291;28;20232;-82
2021/03/30 10:26:27;;;;;;;26.33;13.80;;;22.30;32.30;;;;;;5034644;28;20196;-84
2021/03/30 10:28:55;;;;;;;30.33;15.50;;;21.80;32.20;;;;;;5032340;28;20213;-85
2021/03/30 10:31:48;;;;;;;28.50;13.40;;;22.20;32.30;;;;;;5035124;28;20207;-85
2021/03/30 10:34:22;;;;;;;27.87;14.37;;;22.00;29.00;;;;;;5060596;28;20303;-83
2021/03/30 10:36:50;;;;;;;25.70;13.27;;;22.30;31.50;;;;;;5033627;28;20211;-84
2021/03/30 10:39:17;;;;;;;24.67;13.43;;;22.80;28.90;;;;;;5037388;28;20273;-84
2021/03/30 10:41:44;;;;;;;28.83;12.07;;;23.00;26.00;;;;;;5038187;28;20232;-84
2021/03/30 10:44:17;;;;;;;24.83;13.57;;;23.20;27.10;;;;;;5018893;28;20239;-83
2021/03/30 10:46:48;;;;;;;22.87;12.67;;;22.90;27.50;;;;;;5038013;28;20193;-85
2021/03/30 10:49:15;;;;;;;24.87;12.77;;;23.10;25.10;;;;;;5033253;28;20260;-84
2021/03/30 10:51:46;;;;;;;24.00;13.10;;;22.90;21.40;;;;;;5054383;28;20204;-84
2021/03/30 10:54:18;;;;;;;22.77;12.37;;;22.60;21.30;;;;;;5032883;28;20208;-83
2021/03/30 10:56:45;;;;;;;22.43;12.57;;;22.60;21.20;;;;;;5034038;28;20196;-84
2021/03/30 10:59:15;;;;;;;24.13;12.47;;;22.80;21.60;;;;;;5036204;28;20226;-84
2021/03/30 11:01:42;;;;;;;23.90;12.03;;;22.80;21.90;;;;;;5030611;28;20511;-83
2021/03/30 11:04:12;;;;;;;23.03;11.60;;;23.10;20.90;;;;;;5035593;28;20203;-84
2021/03/30 11:06:39;;;;;;;25.70;12.57;;;23.20;15.80;;;;;;5033739;28;20206;-84
2021/03/30 11:09:06;;;;;;;18.13;10.40;;;22.70;16.60;;;;;;5014151;28;20208;-84
2021/03/30 11:11:33;;;;;;;17.63;10.17;;;22.90;12.40;;;;;;5033285;28;20216;-83
2021/03/30 11:13:59;;;;;;;17.90;10.17;;;23.00;12.50;;;;;;4999374;28;20251;-83
2021/03/30 11:16:28;;;;;;;18.33;10.33;;;22.90;10.60;;;;;;5022292;28;20210;-84
2021/03/30 11:18:56;;;;;;;23.30;10.27;;;22.80;11.30;;;;;;5032945;28;20212;-83
2021/03/30 11:21:23;;;;;;;18.17;10.17;;;23.00;7.60;;;;;;5013379;28;20279;-83
2021/03/30 11:23:50;;;;;;;18.80;10.10;;;22.90;8.30;;;;;;5020196;28;20335;-81
2021/03/30 11:26:17;;;;;;;19.90;10.73;;;23.00;8.00;;;;;;5024374;28;20826;-80
2021/03/30 11:28:46;;;;;;;18.37;9.27;;;23.30;8.80;;;;;;4989871;28;20203;-81
2021/03/30 11:31:30;;;;;;;26.57;11.20;;;23.50;1.80;;;;;;5030161;28;20197;-82
2021/03/30 11:34:07;;;;;;;19.53;10.97;;;23.40;4.00;;;;;;5029739;28;20206;-81
2021/03/30 11:36:38;;;;;;;20.77;10.40;;;23.90;2.50;;;;;;5016156;28;20201;-80
2021/03/30 11:39:05;;;;;;;18.40;10.50;;;24.00;2.10;;;;;;5034743;28;20224;-81
2021/03/30 11:41:31;;;;;;;17.93;9.80;;;24.10;1.00;;;;;;5023806;28;20573;-81
2021/03/30 11:43:59;;;;;;;16.33;8.60;;;24.60;1.00;;;;;;5019207;28;20936;-82
2021/03/30 11:46:26;;;;;;;18.53;9.50;;;24.50;1.00;;;;;;5018403;28;20667;-81
2021/03/30 11:48:52;;;;;;;14.87;7.67;;;24.30;1.00;;;;;;5002945;28;20334;-81
2021/03/30 11:51:18;;;;;;;18.17;9.37;;;23.70;1.00;;;;;;5022903;28;20627;-81
2021/03/30 11:53:45;;;;;;;18.10;10.10;;;24.00;1.00;;;;;;4997872;28;20214;-81
2021/03/30 11:56:12;;;;;;;21.73;9.70;;;24.10;1.00;;;;;;5012941;28;20205;-80
2021/03/30 11:58:38;;;;;;;21.90;10.77;;;24.70;1.00;;;;;;5020110;28;20221;-80
2021/03/30 12:01:07;;;;;;;17.97;9.70;;;24.40;1.00;;;;;;5002450;28;20214;-80
2021/03/30 12:03:37;;;;;;;18.60;9.53;;;24.80;1.00;;;;;;5006107;28;20272;-81
2021/03/30 12:06:08;;;;;;;18.40;10.97;;;24.60;1.00;;;;;;5025455;28;20787;-82
2021/03/30 12:08:35;;;;;;;17.97;9.70;;;24.10;1.00;;;;;;5025802;28;20598;-81
2021/03/30 12:11:02;;;;;;;22.20;10.67;;;24.40;1.00;;;;;;5016319;28;20216;-81
2021/03/30 12:13:30;;;;;;;18.00;9.53;;;24.30;1.00;;;;;;5016598;28;20208;-81
2021/03/30 12:15:56;;;;;;;19.97;10.63;;;24.60;1.00;;;;;;5026937;28;20223;-80
2021/03/30 12:18:23;;;;;;;20.97;10.87;;;25.20;1.00;;;;;;5017217;28;20324;-80
2021/03/30 12:20:50;;;;;;;17.40;9.43;;;24.60;1.00;;;;;;5021651;28;20250;-81
2021/03/30 12:23:17;;;;;;;20.27;10.00;;;24.20;1.00;;;;;;5016583;28;20279;-81
2021/03/30 12:25:43;;;;;;;20.77;10.87;;;24.50;1.00;;;;;;5012110;28;20335;-81
2021/03/30 12:28:10;;;;;;;19.03;10.20;;;24.10;1.00;;;;;;5000433;28;20654;-80
2021/03/30 12:30:37;;;;;;;21.80;10.97;;;24.00;1.00;;;;;;5015958;28;20200;-80
2021/03/30 12:33:04;;;;;;;18.43;9.73;;;24.40;1.00;;;;;;5016270;28;20612;-80
2021/03/30 12:35:30;;;;;;;21.23;10.47;;;24.00;1.00;;;;;;5010649;28;20563;-83
2021/03/30 12:37:56;;;;;;;18.47;10.03;;;24.10;1.00;;;;;;4999441;28;20283;-82
2021/03/30 12:40:23;;;;;;;23.00;12.67;;;24.40;1.00;;;;;;5014385;28;20198;-82
2021/03/30 12:42:51;;;;;;;23.37;11.27;;;24.30;1.00;;;;;;5012149;28;20194;-83
2021/03/30 12:45:19;;;;;;;21.23;10.73;;;24.20;1.00;;;;;;5015516;28;20229;-81
2021/03/30 12:47:46;;;;;;;21.03;11.17;;;24.40;1.00;;;;;;5013728;28;20221;-80
2021/03/30 12:50:14;;;;;;;21.83;12.00;;;23.80;1.00;;;;;;5000211;28;20203;-81
2021/03/30 12:52:40;;;;;;;23.17;11.97;;;23.90;1.00;;;;;;5014285;28;20204;-81
2021/03/30 12:55:08;;;;;;;22.60;11.57;;;23.80;1.00;;;;;;5015274;28;20210;-81
2021/03/30 12:57:35;;;;;;;22.13;11.63;;;24.00;1.00;;;;;;4989110;28;20236;-80
2021/03/30 13:00:03;;;;;;;23.60;11.37;;;24.60;1.00;;;;;;5019583;28;20195;-81
2021/03/30 13:02:29;;;;;;;21.60;11.20;;;24.80;1.00;;;;;;5018298;28;20201;-81
2021/03/30 13:04:56;;;;;;;23.03;11.27;;;25.30;1.00;;;;;;4999636;28;20215;-81
2021/03/30 13:07:22;;;;;;;20.40;10.83;;;25.50;1.00;;;;;;4998947;28;20198;-81
2021/03/30 13:09:49;;;;;;;20.97;11.33;;;25.60;1.00;;;;;;5016731;28;20210;-82
2021/03/30 13:12:16;;;;;;;22.07;11.03;;;25.90;1.00;;;;;;4996550;28;20200;-82
2021/03/30 13:14:47;;;;;;;23.50;11.50;;;25.60;1.00;;;;;;5004244;28;20311;-82
2021/03/30 13:17:14;;;;;;;22.30;12.03;;;25.70;1.00;;;;;;4996582;28;20594;-82
2021/03/30 13:19:40;;;;;;;20.30;10.97;;;26.20;1.00;;;;;;5032553;28;20608;-82
2021/03/30 13:22:11;;;;;;;24.00;10.87;;;25.80;1.00;;;;;;5032817;28;20209;-82